createdAt,value
2018-06-09T00:01:12.007Z,62.51
2018-06-09T00:03:39.130Z,63.24
2018-06-09T00:06:06.347Z,63.47
2018-06-09T00:08:33.469Z,64.22
2018-06-09T00:11:00.605Z,64.60
2018-06-09T00:13:27.730Z,62.83
2018-06-09T00:15:54.828Z,63.19
2018-06-09T00:18:21.952Z,63.36
2018-06-09T00:20:49.119Z,63.91
2018-06-09T00:23:16.220Z,64.04
2018-06-09T00:25:43.368Z,64.54
2018-06-09T00:28:10.537Z,64.73
2018-06-09T00:30:37.642Z,64.43
2018-06-09T00:33:04.755Z,65.67
2018-06-09T00:35:31.983Z,64.15
2018-06-09T00:37:59.083Z,63.73
2018-06-09T00:40:26.192Z,64.92
2018-06-09T00:42:54.315Z,64.80
2018-06-09T00:45:21.388Z,65.98
2018-06-09T00:47:48.463Z,66.16
2018-06-09T00:50:15.582Z,67.30
2018-06-09T00:52:42.796Z,66.50
2018-06-09T00:55:09.908Z,67.30
2018-06-09T00:57:37.082Z,66.94
2018-06-09T01:00:04.246Z,67.95
2018-06-09T01:02:31.364Z,67.51
2018-06-09T01:04:58.502Z,68.13
2018-06-09T01:07:25.631Z,67.78
2018-06-09T01:09:52.822Z,68.51
2018-06-09T01:12:20.361Z,67.64
2018-06-09T01:14:47.465Z,68.31
2018-06-09T01:17:14.544Z,69.24
2018-06-09T01:19:41.756Z,68.11
2018-06-09T01:22:08.976Z,69.11
2018-06-09T01:24:36.071Z,68.82
2018-06-09T01:27:03.263Z,69.34
2018-06-09T01:29:30.364Z,68.88
2018-06-09T01:31:57.442Z,68.25
2018-06-09T01:34:24.617Z,68.13
2018-06-09T01:36:51.754Z,68.33
2018-06-09T01:39:18.843Z,68.70
2018-06-09T01:41:46.168Z,69.15
2018-06-09T01:44:13.373Z,68.92
2018-06-09T01:46:40.503Z,69.77
2018-06-09T01:49:07.689Z,68.44
2018-06-09T01:51:34.828Z,69.32
2018-06-09T01:54:01.992Z,69.60
2018-06-09T01:56:29.116Z,70.17
2018-06-09T01:58:56.242Z,68.54
2018-06-09T02:01:23.344Z,69.14
2018-06-09T02:03:50.509Z,70.83
2018-06-09T02:06:17.622Z,70.05
2018-06-09T02:08:44.866Z,70.66
2018-06-09T02:11:12.028Z,71.15
2018-06-09T02:13:39.152Z,71.41
2018-06-09T02:16:06.249Z,70.90
2018-06-09T02:18:33.460Z,70.48
2018-06-09T02:21:00.595Z,69.66
2018-06-09T02:23:27.672Z,70.56
2018-06-09T02:25:54.813Z,70.87
2018-06-09T02:28:21.932Z,70.87
2018-06-09T02:30:49.032Z,70.86
2018-06-09T02:33:16.157Z,69.77
2018-06-09T02:35:43.257Z,70.67
2018-06-09T02:38:10.354Z,70.00
2018-06-09T02:40:37.506Z,70.52
2018-06-09T02:43:04.868Z,70.91
2018-06-09T02:45:32.185Z,70.98
2018-06-09T02:47:59.363Z,70.93
2018-06-09T02:50:26.472Z,70.03
2018-06-09T02:52:53.599Z,71.36
2018-06-09T02:55:21.120Z,70.77
2018-06-09T02:57:48.242Z,70.59
2018-06-09T03:00:15.320Z,70.81
2018-06-09T03:02:42.482Z,71.65
2018-06-09T03:05:09.585Z,70.89
2018-06-09T03:07:36.699Z,71.09
2018-06-09T03:10:03.949Z,71.00
2018-06-09T03:12:31.063Z,70.27
2018-06-09T03:14:58.110Z,70.41
2018-06-09T03:17:25.312Z,70.36
2018-06-09T03:19:52.451Z,70.61
2018-06-09T03:22:19.548Z,70.61
2018-06-09T03:24:46.722Z,71.10
2018-06-09T03:27:13.838Z,70.56
2018-06-09T03:29:40.925Z,68.95
2018-06-09T03:32:08.073Z,69.88
2018-06-09T03:34:35.201Z,69.59
2018-06-09T03:37:02.299Z,69.22
2018-06-09T03:39:29.415Z,70.22
2018-06-09T03:41:56.527Z,68.67
2018-06-09T03:44:23.608Z,68.83
2018-06-09T03:46:50.761Z,69.41
2018-06-09T03:49:17.845Z,69.38
2018-06-09T03:51:44.935Z,68.94
2018-06-09T03:54:12.087Z,69.41
2018-06-09T03:56:39.579Z,69.16
2018-06-09T03:59:06.694Z,69.04
2018-06-09T04:01:33.891Z,68.88
2018-06-09T04:04:01.743Z,69.68
2018-06-09T04:06:28.836Z,69.96
2018-06-09T04:08:56.021Z,68.94
2018-06-09T04:11:23.095Z,69.30
2018-06-09T04:13:50.188Z,69.58
2018-06-09T04:16:17.303Z,70.81
2018-06-09T04:18:44.411Z,68.62
2018-06-09T04:21:11.736Z,70.16
2018-06-09T04:23:38.890Z,69.45
2018-06-09T04:26:05.993Z,69.59
2018-06-09T04:28:33.138Z,69.30
2018-06-09T04:31:00.417Z,68.75
2018-06-09T04:33:27.551Z,68.81
2018-06-09T04:35:54.669Z,69.63
2018-06-09T04:38:21.835Z,69.52
2018-06-09T04:40:48.947Z,68.27
2018-06-09T04:43:16.047Z,66.48
2018-06-09T04:45:43.210Z,65.65
2018-06-09T04:48:10.704Z,64.29
2018-06-09T04:50:37.833Z,66.23
2018-06-09T04:53:05.062Z,65.04
2018-06-09T04:55:32.200Z,66.81
2018-06-09T04:57:59.422Z,64.70
2018-06-09T05:00:26.576Z,66.33
2018-06-09T05:02:53.691Z,64.04
2018-06-09T05:05:20.895Z,63.91
2018-06-09T05:07:48.081Z,64.96
2018-06-09T05:10:15.190Z,63.41
2018-06-09T05:12:42.357Z,62.39
2018-06-09T05:15:09.786Z,62.27
2018-06-09T05:17:36.888Z,62.81
2018-06-09T05:20:04.032Z,62.10
2018-06-09T05:22:31.222Z,61.58
2018-06-09T05:24:58.363Z,62.02
2018-06-09T05:27:25.618Z,61.03
2018-06-09T05:29:52.791Z,57.81
2018-06-09T05:32:19.944Z,56.67
2018-06-09T05:34:47.111Z,55.62
2018-06-09T05:37:14.284Z,54.24
2018-06-09T05:39:41.384Z,53.59
2018-06-09T05:42:08.553Z,53.36
2018-06-09T05:44:35.777Z,54.90
2018-06-09T05:47:03.600Z,55.28
2018-06-09T05:49:30.715Z,53.53
2018-06-09T05:51:57.875Z,53.79
2018-06-09T05:54:25.104Z,54.24
2018-06-09T05:56:52.267Z,55.11
2018-06-09T05:59:19.488Z,52.33
2018-06-09T06:01:46.683Z,51.01
2018-06-09T06:04:13.823Z,51.66
2018-06-09T06:06:41.477Z,50.62
2018-06-09T06:09:08.768Z,50.14
2018-06-09T06:11:35.891Z,50.08
2018-06-09T06:14:04.265Z,50.79
2018-06-09T06:16:31.712Z,49.99
2018-06-09T06:18:58.852Z,49.59
2018-06-09T06:21:26.017Z,50.60
2018-06-09T06:23:53.235Z,50.48
2018-06-09T06:26:20.721Z,50.12
2018-06-09T06:28:48.194Z,49.32
2018-06-09T06:31:15.354Z,50.67
2018-06-09T06:33:42.675Z,51.40
2018-06-09T06:36:09.908Z,49.13
2018-06-09T06:38:37.022Z,50.20
2018-06-09T06:41:04.117Z,48.89
2018-06-09T06:43:31.530Z,47.93
2018-06-09T06:45:58.727Z,48.64
2018-06-09T06:48:25.886Z,48.92
2018-06-09T06:50:53.648Z,48.00
2018-06-09T06:53:20.768Z,47.93
2018-06-09T06:55:47.976Z,48.85
2018-06-09T06:58:15.164Z,46.90
2018-06-09T07:00:42.376Z,47.90
2018-06-09T07:03:09.522Z,47.34
2018-06-09T07:05:36.812Z,44.34
2018-06-09T07:08:03.929Z,44.55
2018-06-09T07:10:31.031Z,45.08
2018-06-09T07:12:58.179Z,44.48
2018-06-09T07:15:25.284Z,44.85
2018-06-09T07:17:52.415Z,43.45
2018-06-09T07:20:19.551Z,43.93
2018-06-09T07:22:46.654Z,42.17
2018-06-09T07:25:14.923Z,42.60
2018-06-09T07:27:42.076Z,41.56
2018-06-09T07:30:09.375Z,41.41
2018-06-09T07:32:36.489Z,40.84
2018-06-09T07:35:03.927Z,39.73
2018-06-09T07:37:31.042Z,39.84
2018-06-09T07:39:58.154Z,39.14
2018-06-09T07:42:25.324Z,39.77
2018-06-09T07:44:52.425Z,38.57
2018-06-09T07:47:19.663Z,38.13
2018-06-09T07:49:47.043Z,39.15
2018-06-09T07:52:14.138Z,39.59
2018-06-09T07:54:41.328Z,38.07
2018-06-09T07:57:08.504Z,37.28
2018-06-09T07:59:35.677Z,34.62
2018-06-09T08:02:02.762Z,33.99
2018-06-09T08:04:29.954Z,34.57
2018-06-09T08:06:57.092Z,33.81
2018-06-09T08:09:24.173Z,34.84
2018-06-09T08:11:51.327Z,34.33
2018-06-09T08:14:18.479Z,32.30
2018-06-09T08:16:45.628Z,33.46
2018-06-09T08:19:12.824Z,33.53
2018-06-09T08:21:39.931Z,33.89
2018-06-09T08:24:07.124Z,33.47
2018-06-09T08:26:34.279Z,31.47
2018-06-09T08:29:01.421Z,31.71
2018-06-09T08:31:28.474Z,31.88
2018-06-09T08:33:56.601Z,30.28
2018-06-09T08:36:23.725Z,30.78
2018-06-09T08:38:51.411Z,31.29
2018-06-09T08:41:18.577Z,29.96
2018-06-09T08:43:45.728Z,33.31
2018-06-09T08:46:12.816Z,31.34
2018-06-09T08:48:39.957Z,29.32
2018-06-09T08:51:07.106Z,28.88
2018-06-09T08:53:34.311Z,30.36
2018-06-09T08:56:01.486Z,29.27
2018-06-09T08:58:28.616Z,30.84
2018-06-09T09:00:55.761Z,28.57
2018-06-09T09:03:22.885Z,29.26
2018-06-09T09:05:49.983Z,28.33
2018-06-09T09:08:17.062Z,28.68
2018-06-09T09:10:44.235Z,28.32
2018-06-09T09:13:11.611Z,28.04
2018-06-09T09:15:38.699Z,27.47
2018-06-09T09:18:05.877Z,27.95
2018-06-09T09:20:33.003Z,27.41
2018-06-09T09:23:00.126Z,28.39
2018-06-09T09:25:27.440Z,27.00
2018-06-09T09:27:54.585Z,27.69
2018-06-09T09:30:21.678Z,24.21
2018-06-09T09:32:48.842Z,24.43
2018-06-09T09:35:15.943Z,27.16
2018-06-09T09:37:43.025Z,25.13
2018-06-09T09:40:10.267Z,25.89
2018-06-09T09:42:37.424Z,25.89
2018-06-09T09:45:04.595Z,25.93
2018-06-09T09:47:31.814Z,25.71
2018-06-09T09:49:58.940Z,26.34
2018-06-09T09:52:29.454Z,25.06
2018-06-09T09:54:56.713Z,24.08
2018-06-09T09:57:23.892Z,24.26
2018-06-09T09:59:51.054Z,23.46
2018-06-09T10:02:18.264Z,25.55
2018-06-09T10:04:46.036Z,23.48
2018-06-09T10:07:13.173Z,24.43
2018-06-09T10:09:40.307Z,24.48
2018-06-09T10:12:08.278Z,24.10
2018-06-09T10:14:35.548Z,23.84
2018-06-09T10:17:02.909Z,23.44
2018-06-09T10:19:30.666Z,23.73
2018-06-09T10:21:57.899Z,23.32
2018-06-09T10:24:25.099Z,23.18
2018-06-09T10:26:52.215Z,22.74
2018-06-09T10:29:19.352Z,22.34
2018-06-09T10:31:47.170Z,22.25
2018-06-09T10:34:14.275Z,22.13
2018-06-09T10:36:42.000Z,21.74
2018-06-09T10:39:33.758Z,21.33
2018-06-09T10:42:01.002Z,25.10
2018-06-09T10:44:28.196Z,22.40
2018-06-09T10:46:56.766Z,21.95
2018-06-09T10:49:23.929Z,25.52
2018-06-09T10:51:51.076Z,21.76
2018-06-09T10:54:18.774Z,22.08
2018-06-09T10:56:45.888Z,20.57
2018-06-09T10:59:12.975Z,20.64
2018-06-09T11:01:40.203Z,20.38
2018-06-09T11:04:07.284Z,21.45
2018-06-09T11:06:34.493Z,21.33
2018-06-09T11:09:03.330Z,22.01
2018-06-09T11:11:30.437Z,22.02
2018-06-09T11:13:57.546Z,22.94
2018-06-09T11:16:24.696Z,20.11
2018-06-09T11:18:51.928Z,21.25
2018-06-09T11:21:19.076Z,24.07
2018-06-09T11:23:46.207Z,20.53
2018-06-09T11:26:13.280Z,20.24
2018-06-09T11:28:41.490Z,21.06
2018-06-09T11:31:08.730Z,22.34
2018-06-09T11:33:35.921Z,21.24
2018-06-09T11:36:03.063Z,20.35
2018-06-09T11:38:30.448Z,20.92
2018-06-09T11:40:57.569Z,21.34
2018-06-09T11:43:24.748Z,18.76
2018-06-09T11:45:53.007Z,18.39
2018-06-09T11:48:20.096Z,17.08
2018-06-09T11:50:47.253Z,17.41
2018-06-09T11:53:14.484Z,18.01
2018-06-09T11:55:41.751Z,20.13
2018-06-09T11:58:08.914Z,19.76
2018-06-09T12:00:36.097Z,17.86
2018-06-09T12:03:03.219Z,16.38
2018-06-09T12:05:30.346Z,15.77
2018-06-09T12:07:57.590Z,17.37
2018-06-09T12:10:24.794Z,16.49
2018-06-09T12:12:51.890Z,17.12
2018-06-09T12:15:19.092Z,18.27
2018-06-09T12:17:46.241Z,20.67
2018-06-09T12:20:13.418Z,21.71
2018-06-09T12:22:41.502Z,23.39
2018-06-09T12:25:08.616Z,25.51
2018-06-09T12:27:35.788Z,23.59
2018-06-09T12:30:03.000Z,23.58
2018-06-09T12:32:31.065Z,23.00
2018-06-09T12:34:58.834Z,24.01
2018-06-09T12:37:25.968Z,24.99
2018-06-09T12:39:53.069Z,25.36
2018-06-09T12:42:20.200Z,23.87
2018-06-09T12:44:47.375Z,24.80
2018-06-09T12:47:14.472Z,24.08
2018-06-09T12:49:41.582Z,24.36
2018-06-09T12:52:08.710Z,25.13
2018-06-09T12:54:35.818Z,24.57
2018-06-09T12:57:03.302Z,25.65
2018-06-09T12:59:30.488Z,24.65
2018-06-09T13:01:57.696Z,26.56
2018-06-09T13:04:24.796Z,24.76
2018-06-09T13:06:51.946Z,24.86
2018-06-09T13:09:19.053Z,24.81
2018-06-09T13:11:46.155Z,23.25
2018-06-09T13:14:13.275Z,24.58
2018-06-09T13:16:40.359Z,22.05
2018-06-09T13:19:07.460Z,23.28
2018-06-09T13:21:34.707Z,22.89
2018-06-09T13:24:01.866Z,24.76
2018-06-09T13:26:28.971Z,25.31
2018-06-09T13:28:56.142Z,24.22
2018-06-09T13:31:24.178Z,25.71
2018-06-09T13:33:51.579Z,25.12
2018-06-09T13:36:18.827Z,25.61
2018-06-09T13:38:45.920Z,24.58
2018-06-09T13:41:13.004Z,24.25
2018-06-09T13:43:40.177Z,24.09
2018-06-09T13:46:07.373Z,22.49
2018-06-09T13:48:35.500Z,22.41
2018-06-09T13:51:02.626Z,23.19
2018-06-09T13:53:29.736Z,22.76
2018-06-09T13:55:56.840Z,25.27
2018-06-09T13:58:23.975Z,24.04
2018-06-09T14:00:51.400Z,23.02
2018-06-09T14:03:18.515Z,23.82
2018-06-09T14:05:45.681Z,23.47
2018-06-09T14:08:12.779Z,25.07
2018-06-09T14:10:39.886Z,24.38
2018-06-09T14:34:49.680Z,23.93
2018-06-09T14:37:16.852Z,24.27
2018-06-09T14:39:43.976Z,22.75
2018-06-09T14:42:11.117Z,25.01
2018-06-09T14:44:38.968Z,26.47
2018-06-09T14:47:06.118Z,25.68
2018-06-09T14:49:33.267Z,26.78
2018-06-09T14:52:00.940Z,25.64
2018-06-09T14:54:28.052Z,22.69
2018-06-09T14:56:55.220Z,23.97
2018-06-09T14:59:22.332Z,22.56
2018-06-09T15:01:49.437Z,20.88
2018-06-09T15:04:16.617Z,22.37
2018-06-09T15:06:43.871Z,24.13
2018-06-09T15:09:10.994Z,24.04
2018-06-09T15:11:38.132Z,18.62
2018-06-09T15:14:05.258Z,17.80
2018-06-09T15:16:32.399Z,17.66
2018-06-09T15:18:59.652Z,14.71
2018-06-09T15:21:26.784Z,15.72
2018-06-09T15:23:53.879Z,17.15
2018-06-09T15:26:21.019Z,15.24
2018-06-09T15:28:48.110Z,18.52
2018-06-09T15:31:15.296Z,17.99
2018-06-09T15:33:42.496Z,18.77
2018-06-09T15:36:09.898Z,17.60
2018-06-09T15:38:37.158Z,18.88
2018-06-09T15:41:04.392Z,16.74
2018-06-09T15:43:31.504Z,15.75
2018-06-09T15:45:58.586Z,15.82
2018-06-09T15:48:25.812Z,14.44
2018-06-09T15:50:53.218Z,13.50
2018-06-09T15:53:20.316Z,15.30
2018-06-09T15:55:47.465Z,16.49
2018-06-09T15:58:14.539Z,18.64
2018-06-09T16:00:41.613Z,19.07
2018-06-09T16:03:08.781Z,20.04
2018-06-09T16:05:36.289Z,22.05
2018-06-09T16:08:04.027Z,22.71
2018-06-09T16:10:31.155Z,23.10
2018-06-09T16:12:58.246Z,22.06
2018-06-09T16:15:25.578Z,24.23
2018-06-09T16:17:52.703Z,24.14
2018-06-09T16:20:20.633Z,25.60
2018-06-09T16:22:47.731Z,26.39
2018-06-09T16:25:14.876Z,24.42
2018-06-09T16:27:41.984Z,25.65
2018-06-09T16:30:09.073Z,24.83
2018-06-09T16:32:36.269Z,25.12
2018-06-09T16:35:03.367Z,26.26
2018-06-09T16:37:30.473Z,26.83
2018-06-09T16:39:57.744Z,26.37
2018-06-09T16:42:24.818Z,26.96
2018-06-09T16:44:51.928Z,27.14
2018-06-09T16:47:19.153Z,26.42
2018-06-09T16:49:46.225Z,27.00
2018-06-09T16:52:13.330Z,26.14
2018-06-09T16:54:40.589Z,28.54
2018-06-09T16:57:07.716Z,29.54
2018-06-09T16:59:36.259Z,27.87
2018-06-09T17:02:03.429Z,26.99
2018-06-09T17:04:30.628Z,26.50
2018-06-09T17:06:57.764Z,28.05
2018-06-09T17:09:24.994Z,28.90
2018-06-09T17:11:52.180Z,26.98
2018-06-09T17:14:19.268Z,27.62
2018-06-09T17:16:46.450Z,27.56
2018-06-09T17:19:13.578Z,27.45
2018-06-09T17:21:40.782Z,29.00
2018-06-09T17:24:07.894Z,28.82
2018-06-09T17:26:35.233Z,30.34
2018-06-09T17:29:02.339Z,29.87
2018-06-09T17:31:29.997Z,29.98
2018-06-09T17:33:57.127Z,28.04
2018-06-09T17:36:25.039Z,28.45
2018-06-09T17:38:52.628Z,33.26
2018-06-09T17:41:19.870Z,37.83
2018-06-09T17:43:46.951Z,39.01
2018-06-09T17:46:14.091Z,40.63
2018-06-09T17:48:41.336Z,41.92
2018-06-09T17:51:08.501Z,42.27
2018-06-09T17:53:36.383Z,42.67
2018-06-09T17:56:04.007Z,43.07
2018-06-09T17:58:31.145Z,44.13
2018-06-09T18:00:58.304Z,44.26
2018-06-09T18:03:25.483Z,45.25
2018-06-09T18:05:52.592Z,44.95
2018-06-09T18:08:19.756Z,45.63
2018-06-09T18:10:46.840Z,46.83
2018-06-09T18:13:15.059Z,47.94
2018-06-09T18:15:42.186Z,47.49
2018-06-09T18:18:09.367Z,48.39
2018-06-09T18:20:36.493Z,48.76
2018-06-09T18:23:03.770Z,48.53
2018-06-09T18:25:30.838Z,48.99
2018-06-09T18:27:57.987Z,49.01
2018-06-09T18:30:25.144Z,49.61
2018-06-09T18:32:52.215Z,49.87
2018-06-09T18:35:19.292Z,50.31
2018-06-09T18:37:46.461Z,49.98
2018-06-09T18:40:13.544Z,49.79
2018-06-09T18:42:40.757Z,50.56
2018-06-09T18:45:07.950Z,52.32
2018-06-09T18:47:35.097Z,51.08
2018-06-09T18:50:02.810Z,51.15
2018-06-09T18:52:29.967Z,51.18
2018-06-09T18:54:57.209Z,51.78
2018-06-09T18:57:24.308Z,52.73
2018-06-09T18:59:51.477Z,52.43
2018-06-09T19:02:18.588Z,53.39
2018-06-09T19:04:45.738Z,53.07
2018-06-09T19:07:12.966Z,53.49
2018-06-09T19:09:40.041Z,53.91
2018-06-09T19:12:07.131Z,53.96
2018-06-09T19:14:34.614Z,54.99
2018-06-09T19:17:01.725Z,55.31
2018-06-09T19:19:28.983Z,55.33
2018-06-09T19:21:56.188Z,55.76
2018-06-09T19:24:23.251Z,57.01
2018-06-09T19:26:50.372Z,56.32
2018-06-09T19:29:22.867Z,57.03
2018-06-09T19:31:53.108Z,57.27
2018-06-09T19:34:24.430Z,56.95
2018-06-09T19:36:55.480Z,57.86
2018-06-09T19:39:22.620Z,58.86
2018-06-09T19:41:54.521Z,58.57
2018-06-09T19:44:27.350Z,59.63
2018-06-09T19:46:56.838Z,60.24
2018-06-09T19:49:26.466Z,60.46
2018-06-09T19:51:55.926Z,61.20
2018-06-09T19:54:22.992Z,61.03
2018-06-09T19:56:55.777Z,61.63
2018-06-09T19:59:27.604Z,62.26
2018-06-09T20:01:54.725Z,62.77
2018-06-09T20:04:22.068Z,63.68
2018-06-09T20:06:49.616Z,63.22
2018-06-09T20:09:16.707Z,63.15
2018-06-09T20:11:46.771Z,63.72
2018-06-09T20:14:14.012Z,63.92
2018-06-09T20:16:41.314Z,64.25
2018-06-09T20:19:10.363Z,65.19
2018-06-09T20:21:37.487Z,64.98
2018-06-09T20:24:04.584Z,65.56
2018-06-09T20:26:31.692Z,66.28
2018-06-09T20:28:58.813Z,65.78
2018-06-09T20:31:25.919Z,66.40
2018-06-09T20:33:53.016Z,66.25
2018-06-09T20:36:20.232Z,66.38
2018-06-09T20:38:47.344Z,66.92
2018-06-09T20:41:14.436Z,66.81
2018-06-09T20:43:41.550Z,67.21
2018-06-09T20:46:08.679Z,66.93
2018-06-09T20:48:35.779Z,67.35
2018-06-09T20:51:03.001Z,68.28
2018-06-09T20:53:30.115Z,67.80
2018-06-09T20:55:57.191Z,67.54
2018-06-09T20:58:24.356Z,67.28
2018-06-09T21:00:51.441Z,67.67
2018-06-09T21:03:18.588Z,68.49
2018-06-09T21:05:45.766Z,68.18
2018-06-09T21:08:12.838Z,68.34
2018-06-09T21:10:39.918Z,69.32
2018-06-09T21:13:07.041Z,69.54
2018-06-09T21:15:34.133Z,69.30
2018-06-09T21:18:01.256Z,69.76
2018-06-09T21:20:28.400Z,70.46
2018-06-09T21:22:55.480Z,69.93
2018-06-09T21:25:22.582Z,70.88
2018-06-09T21:27:55.504Z,71.14
2018-06-09T21:30:28.369Z,71.11
2018-06-09T21:33:01.108Z,71.13
2018-06-09T21:35:44.946Z,71.23
2018-06-09T21:38:15.980Z,72.39
2018-06-09T21:40:47.031Z,71.45
2018-06-09T21:43:19.779Z,71.82
2018-06-09T21:45:49.903Z,72.50
2018-06-09T21:48:18.067Z,72.51
2018-06-09T21:50:45.223Z,72.42
2018-06-09T21:53:12.333Z,72.73
2018-06-09T21:55:39.692Z,73.14
2018-06-09T21:58:06.830Z,73.47
2018-06-09T22:00:33.908Z,73.34
2018-06-09T22:03:00.978Z,74.31
2018-06-09T22:05:28.175Z,73.53
2018-06-09T22:07:55.247Z,73.66
2018-06-09T22:10:22.355Z,74.14
2018-06-09T22:12:49.485Z,74.55
2018-06-09T22:15:16.548Z,75.23
2018-06-09T22:17:43.659Z,75.14
2018-06-09T22:20:10.787Z,74.69
2018-06-09T22:22:37.849Z,75.34
2018-06-09T22:25:04.950Z,75.94
2018-06-09T22:27:32.112Z,75.62
2018-06-09T22:29:59.468Z,75.38
2018-06-09T22:32:26.560Z,74.98
2018-06-09T22:34:53.693Z,75.77
2018-06-09T22:37:20.834Z,76.39
2018-06-09T22:39:47.883Z,75.93
2018-06-09T22:42:15.585Z,76.23
2018-06-09T22:44:42.663Z,76.61
2018-06-09T22:47:09.740Z,76.91
2018-06-09T22:49:36.862Z,76.00
2018-06-09T22:52:03.974Z,76.87
2018-06-09T22:54:31.085Z,76.65
2018-06-09T22:56:58.223Z,76.90
2018-06-09T22:59:25.280Z,76.48
2018-06-09T23:01:52.381Z,76.83
2018-06-09T23:04:19.514Z,77.07
2018-06-09T23:06:46.639Z,76.54
2018-06-09T23:09:13.722Z,77.34
2018-06-09T23:11:40.848Z,77.10
2018-06-09T23:14:07.944Z,77.56
2018-06-09T23:16:35.023Z,77.62
2018-06-09T23:19:02.163Z,77.53
2018-06-09T23:21:29.231Z,77.90
2018-06-09T23:23:56.329Z,78.25
2018-06-09T23:26:23.452Z,78.29
2018-06-09T23:28:50.523Z,78.04
2018-06-09T23:31:17.592Z,78.74
2018-06-09T23:33:44.700Z,79.06
2018-06-09T23:36:11.764Z,78.39
2018-06-09T23:38:38.826Z,78.58
2018-06-09T23:41:05.964Z,78.50
2018-06-09T23:43:33.104Z,79.32
2018-06-09T23:46:00.200Z,79.65
2018-06-09T23:48:27.317Z,78.16
2018-06-09T23:50:54.366Z,79.15
2018-06-09T23:53:21.428Z,78.94
2018-06-09T23:55:48.552Z,79.84
2018-06-09T23:58:15.656Z,80.02
